Time;durP1;ratioP1;P1;durP2;ratioP2;P2;SDS_P1;SDS_P2;PMS_P1;PMS_P2;Temp;Humidity;BMP_temperature;BMP_pressure;BME280_temperature;BME280_humidity;BME280_pressure;Samples;Min_cycle;Max_cycle;Signal;HPM_P1;HPM_P2
2022/04/22 00:00:38;;;;;;;15.20;4.47;;;;;;;;;;5050939;28;20231;-78
2022/04/22 00:03:07;;;;;;;14.75;3.70;;;;;;;;;;5050879;28;20786;-76
2022/04/22 00:05:37;;;;;;;15.85;4.53;;;;;;;;;;5050843;28;20272;-76
2022/04/22 00:08:05;;;;;;;16.15;3.80;;;;;;;;;;5051190;28;20594;-77
2022/04/22 00:10:32;;;;;;;15.15;4.40;;;;;;;;;;5052884;28;20214;-80
2022/04/22 00:13:00;;;;;;;17.27;4.07;;;;;;;;;;5054503;28;20667;-76
2022/04/22 00:15:28;;;;;;;18.45;5.30;;;;;;;;;;5054483;28;20354;-76
2022/04/22 00:17:55;;;;;;;16.90;4.25;;;;;;;;;;5054687;28;20217;-75
2022/04/22 00:20:23;;;;;;;16.58;4.40;;;;;;;;;;5054503;28;20212;-78
2022/04/22 00:22:53;;;;;;;15.85;4.43;;;;;;;;;;5054538;28;20212;-77
2022/04/22 00:25:21;;;;;;;15.50;4.43;;;;;;;;;;5054361;28;20207;-76
2022/04/22 00:27:48;;;;;;;15.98;4.13;;;;;;;;;;5054176;28;20205;-77
2022/04/22 00:30:15;;;;;;;16.95;4.85;;;;;;;;;;5053898;28;20223;-76
2022/04/22 00:32:43;;;;;;;17.00;4.35;;;;;;;;;;5054188;28;20215;-77
2022/04/22 00:35:10;;;;;;;15.90;4.50;;;;;;;;;;5054138;28;20213;-80
2022/04/22 00:37:40;;;;;;;16.85;5.18;;;;;;;;;;5053772;28;20243;-76
2022/04/22 00:40:09;;;;;;;18.48;4.65;;;;;;;;;;5054091;28;20220;-76
2022/04/22 00:42:38;;;;;;;14.70;4.03;;;;;;;;;;5054181;28;20339;-77
2022/04/22 00:45:06;;;;;;;15.45;4.72;;;;;;;;;;5054033;28;20207;-76
2022/04/22 00:47:33;;;;;;;17.63;5.15;;;;;;;;;;5053938;28;20212;-80
2022/04/22 00:50:00;;;;;;;16.15;4.10;;;;;;;;;;5054039;28;20211;-76
2022/04/22 00:52:28;;;;;;;16.00;5.13;;;;;;;;;;5053768;28;20303;-77
2022/04/22 00:54:56;;;;;;;14.48;4.32;;;;;;;;;;5053735;28;20206;-76
2022/04/22 00:57:26;;;;;;;17.50;4.00;;;;;;;;;;5053462;28;20239;-78
2022/04/22 00:59:53;;;;;;;16.17;3.97;;;;;;;;;;5053828;28;20210;-76
2022/04/22 01:02:21;;;;;;;21.40;5.40;;;;;;;;;;5053457;28;20241;-76
2022/04/22 01:10:26;;;;;;;15.88;4.75;;;;;;;;;;5017598;28;20213;-78
2022/04/22 01:12:56;;;;;;;16.77;4.30;;;;;;;;;;5053713;28;20212;-77
2022/04/22 01:15:24;;;;;;;17.95;5.00;;;;;;;;;;5046777;28;20212;-73
2022/04/22 01:17:51;;;;;;;17.17;4.78;;;;;;;;;;5053156;28;20239;-76
2022/04/22 01:20:19;;;;;;;17.35;4.72;;;;;;;;;;5053340;28;20216;-79
2022/04/22 01:22:47;;;;;;;15.75;4.95;;;;;;;;;;5053549;28;20215;-76
2022/04/22 01:25:15;;;;;;;17.13;4.80;;;;;;;;;;5053245;28;20216;-76
2022/04/22 01:27:43;;;;;;;16.85;4.68;;;;;;;;;;5053148;28;20245;-76
2022/04/22 01:30:11;;;;;;;16.38;4.78;;;;;;;;;;5052853;28;20613;-79
2022/04/22 01:32:39;;;;;;;16.45;4.65;;;;;;;;;;5053089;28;20206;-76
2022/04/22 01:35:07;;;;;;;17.23;4.65;;;;;;;;;;5053086;28;20575;-76
2022/04/22 01:37:34;;;;;;;16.83;5.78;;;;;;;;;;5052928;28;20225;-76
2022/04/22 01:40:03;;;;;;;15.98;5.03;;;;;;;;;;5053037;28;20746;-80
2022/04/22 01:42:31;;;;;;;16.10;4.55;;;;;;;;;;5052924;28;20209;-77
2022/04/22 01:44:59;;;;;;;16.70;5.30;;;;;;;;;;5053295;28;20206;-76
2022/04/22 01:47:27;;;;;;;17.85;5.25;;;;;;;;;;5052861;28;20216;-76
2022/04/22 01:49:54;;;;;;;16.92;5.20;;;;;;;;;;5052998;28;20571;-80
2022/04/22 01:52:21;;;;;;;16.38;5.00;;;;;;;;;;5052894;28;20207;-76
2022/04/22 01:54:51;;;;;;;14.68;4.00;;;;;;;;;;5052749;28;20215;-76
2022/04/22 01:57:19;;;;;;;15.38;4.20;;;;;;;;;;5052427;28;20239;-76
2022/04/22 01:59:48;;;;;;;16.00;4.80;;;;;;;;;;5052869;28;20209;-77
2022/04/22 02:02:15;;;;;;;16.98;4.75;;;;;;;;;;5052162;28;20275;-79
2022/04/22 02:04:44;;;;;;;16.52;4.97;;;;;;;;;;5052646;28;20217;-76
2022/04/22 02:07:11;;;;;;;15.40;4.30;;;;;;;;;;5052506;28;20240;-76
2022/04/22 02:09:39;;;;;;;16.55;4.57;;;;;;;;;;5052066;28;20201;-76
2022/04/22 02:12:07;;;;;;;16.92;4.85;;;;;;;;;;5052654;28;20608;-79
2022/04/22 02:14:36;;;;;;;15.45;4.20;;;;;;;;;;5052319;28;20681;-76
2022/04/22 02:17:03;;;;;;;16.35;4.57;;;;;;;;;;5052162;28;20238;-76
2022/04/22 02:19:31;;;;;;;15.60;4.05;;;;;;;;;;5052111;28;20220;-76
2022/04/22 02:21:59;;;;;;;15.48;4.40;;;;;;;;;;5052277;28;20213;-80
2022/04/22 02:24:26;;;;;;;15.25;4.30;;;;;;;;;;5052002;28;20212;-76
2022/04/22 02:29:40;;;;;;;20.90;5.20;;;;;;;;;;5051878;28;20245;-77
2022/04/22 02:32:08;;;;;;;14.60;3.85;;;;;;;;;;5051843;28;20209;-76
2022/04/22 02:34:35;;;;;;;14.75;4.13;;;;;;;;;;5051929;28;20640;-74
2022/04/22 02:37:04;;;;;;;18.35;4.95;;;;;;;;;;5052134;28;20229;-77
2022/04/22 02:39:31;;;;;;;18.67;5.70;;;;;;;;;;5052017;28;20217;-79
2022/04/22 02:47:30;;;;;;;15.75;4.30;;;;;;;;;;5051737;28;20702;-81
2022/04/22 02:49:57;;;;;;;17.23;4.93;;;;;;;;;;5051697;28;20244;-77
2022/04/22 02:52:26;;;;;;;15.95;4.57;;;;;;;;;;5051757;28;20213;-77
2022/04/22 02:54:54;;;;;;;16.00;4.03;;;;;;;;;;5051723;28;20205;-79
2022/04/22 02:57:22;;;;;;;17.92;5.22;;;;;;;;;;5051541;28;20229;-74
2022/04/22 02:59:50;;;;;;;18.15;4.93;;;;;;;;;;5051574;28;20213;-76
2022/04/22 03:02:18;;;;;;;19.00;4.60;;;;;;;;;;5051340;28;20241;-76
2022/04/22 03:04:47;;;;;;;16.17;4.60;;;;;;;;;;5051478;28;20291;-76
2022/04/22 03:07:15;;;;;;;16.50;5.00;;;;;;;;;;5051846;28;20685;-76
2022/04/22 03:09:43;;;;;;;15.75;4.13;;;;;;;;;;5044774;28;20259;-79
2022/04/22 03:12:13;;;;;;;18.23;5.57;;;;;;;;;;5051492;28;20595;-76
2022/04/22 03:14:40;;;;;;;16.38;4.55;;;;;;;;;;5051743;28;20237;-78
2022/04/22 03:17:09;;;;;;;16.92;5.30;;;;;;;;;;5051610;28;20267;-77
2022/04/22 03:19:36;;;;;;;16.45;5.25;;;;;;;;;;5051316;28;20214;-76
2022/04/22 03:22:04;;;;;;;18.38;5.47;;;;;;;;;;5051549;28;20209;-80
2022/04/22 03:24:31;;;;;;;15.90;4.50;;;;;;;;;;5051487;28;20215;-76
2022/04/22 03:26:59;;;;;;;17.55;5.47;;;;;;;;;;5051398;28;20223;-76
2022/04/22 03:29:27;;;;;;;20.52;5.00;;;;;;;;;;5051212;28;20607;-79
2022/04/22 03:31:54;;;;;;;16.20;3.95;;;;;;;;;;5051374;28;20215;-76
2022/04/22 03:34:23;;;;;;;21.45;6.10;;;;;;;;;;5051384;28;20208;-76
2022/04/22 03:36:51;;;;;;;18.13;6.15;;;;;;;;;;5045295;28;20239;-76
2022/04/22 03:39:18;;;;;;;24.73;7.95;;;;;;;;;;5051124;28;20205;-75
2022/04/22 03:41:46;;;;;;;19.08;5.95;;;;;;;;;;5050934;28;20205;-76
2022/04/22 03:44:15;;;;;;;23.10;7.13;;;;;;;;;;5051528;28;20213;-76
2022/04/22 03:46:43;;;;;;;17.23;5.20;;;;;;;;;;5055363;28;20209;-76
2022/04/22 03:49:10;;;;;;;17.70;5.40;;;;;;;;;;5055022;28;20213;-76
2022/04/22 03:51:39;;;;;;;17.13;5.20;;;;;;;;;;5054899;28;20203;-80
2022/04/22 03:54:10;;;;;;;18.15;4.45;;;;;;;;;;5055179;28;20227;-76
2022/04/22 03:59:25;;;;;;;19.25;5.55;;;;;;;;;;5054938;28;20216;-74
2022/04/22 04:01:52;;;;;;;18.83;5.60;;;;;;;;;;5054531;28;20236;-76
2022/04/22 04:04:20;;;;;;;18.50;5.88;;;;;;;;;;5054708;28;20673;-77
2022/04/22 04:06:48;;;;;;;18.27;5.32;;;;;;;;;;5054699;28;20219;-76
2022/04/22 04:17:36;;;;;;;22.90;7.53;;;;;;;;;;5047940;28;20238;-76
2022/04/22 04:25:34;;;;;;;21.58;6.32;;;;;;;;;;5054364;28;20800;-79
2022/04/22 04:28:02;;;;;;;28.45;5.82;;;;;;;;;;5054544;28;20220;-76
2022/04/22 04:30:31;;;;;;;19.08;6.05;;;;;;;;;;5054041;28;20744;-78
2022/04/22 04:32:58;;;;;;;18.35;5.78;;;;;;;;;;5054224;28;20205;-76
2022/04/22 04:35:27;;;;;;;19.10;5.93;;;;;;;;;;5053873;28;20209;-75
2022/04/22 04:37:56;;;;;;;20.05;6.45;;;;;;;;;;5054057;28;20237;-76
2022/04/22 04:40:23;;;;;;;17.52;5.45;;;;;;;;;;5048094;28;20642;-76
2022/04/22 04:42:52;;;;;;;15.82;4.95;;;;;;;;;;5054190;28;20209;-77
2022/04/22 04:45:20;;;;;;;19.80;5.72;;;;;;;;;;5054107;28;20274;-76
2022/04/22 04:47:48;;;;;;;22.45;6.80;;;;;;;;;;5054039;28;20225;-77
2022/04/22 04:50:16;;;;;;;18.00;6.45;;;;;;;;;;5053855;28;20205;-76
2022/04/22 04:52:43;;;;;;;16.73;5.20;;;;;;;;;;5053838;28;20201;-78
2022/04/22 04:55:14;;;;;;;17.33;5.47;;;;;;;;;;5053513;28;20205;-76
2022/04/22 04:57:42;;;;;;;17.35;6.00;;;;;;;;;;5053489;28;20229;-76
2022/04/22 05:00:11;;;;;;;17.20;5.20;;;;;;;;;;5054029;28;20221;-76
2022/04/22 05:02:38;;;;;;;16.77;4.57;;;;;;;;;;5053265;28;20291;-77
2022/04/22 05:05:09;;;;;;;17.88;5.22;;;;;;;;;;5053716;28;20212;-78
2022/04/22 05:07:47;;;;;;;21.83;5.88;;;;;;;;;;5053363;28;20262;-79
2022/04/22 05:10:16;;;;;;;16.55;5.93;;;;;;;;;;5053614;28;20208;-75
2022/04/22 05:12:43;;;;;;;15.55;5.40;;;;;;;;;;5053744;28;20283;-75
2022/04/22 05:15:12;;;;;;;14.77;4.72;;;;;;;;;;5053401;28;20220;-75
2022/04/22 05:17:40;;;;;;;19.30;5.20;;;;;;;;;;5053141;28;20225;-76
2022/04/22 05:20:10;;;;;;;17.65;5.90;;;;;;;;;;5053449;28;20213;-78
2022/04/22 05:22:37;;;;;;;16.63;5.20;;;;;;;;;;5053375;28;20217;-76
2022/04/22 05:25:05;;;;;;;18.30;5.97;;;;;;;;;;5053286;28;20586;-77
2022/04/22 05:27:34;;;;;;;16.25;5.32;;;;;;;;;;5052976;28;20251;-75
2022/04/22 05:32:48;;;;;;;16.50;5.40;;;;;;;;;;5053305;28;20641;-76
2022/04/22 05:35:17;;;;;;;17.52;4.78;;;;;;;;;;5053158;28;20233;-76
2022/04/22 05:37:45;;;;;;;17.75;5.70;;;;;;;;;;5052756;28;20247;-76
2022/04/22 05:40:13;;;;;;;17.00;5.80;;;;;;;;;;5052868;28;20210;-77
2022/04/22 05:42:42;;;;;;;16.40;5.35;;;;;;;;;;5053310;28;20292;-76
2022/04/22 05:45:10;;;;;;;15.82;5.53;;;;;;;;;;5053068;28;20209;-76
2022/04/22 05:47:37;;;;;;;17.95;6.00;;;;;;;;;;5052798;28;20236;-77
2022/04/22 05:50:06;;;;;;;19.08;6.18;;;;;;;;;;5053182;28;20216;-76
2022/04/22 05:52:34;;;;;;;17.40;5.93;;;;;;;;;;5052733;28;20209;-79
2022/04/22 05:55:03;;;;;;;17.73;5.88;;;;;;;;;;5053002;28;20232;-75
2022/04/22 05:57:31;;;;;;;18.35;6.30;;;;;;;;;;5052659;28;20294;-76
2022/04/22 06:00:03;;;;;;;17.80;6.40;;;;;;;;;;5053018;28;20255;-76
2022/04/22 06:02:31;;;;;;;17.88;6.10;;;;;;;;;;5052701;28;20264;-76
2022/04/22 06:04:58;;;;;;;20.83;8.55;;;;;;;;;;5052589;28;20211;-77
2022/04/22 06:07:26;;;;;;;23.67;8.82;;;;;;;;;;5051605;28;20210;-78
2022/04/22 06:12:38;;;;;;;20.20;6.90;;;;;;;;;;5052454;28;20286;-76
2022/04/22 06:15:07;;;;;;;21.77;7.85;;;;;;;;;;5052509;28;20205;-76
2022/04/22 06:17:35;;;;;;;19.17;7.75;;;;;;;;;;5051983;28;20229;-76
2022/04/22 06:20:02;;;;;;;18.55;5.88;;;;;;;;;;5052369;28;20205;-76
2022/04/22 06:22:30;;;;;;;20.30;7.00;;;;;;;;;;5052399;28;20211;-76
2022/04/22 06:24:58;;;;;;;20.40;8.32;;;;;;;;;;5052194;28;20215;-77
2022/04/22 06:27:26;;;;;;;22.67;8.80;;;;;;;;;;5051885;28;20212;-74
2022/04/22 06:29:54;;;;;;;32.55;12.90;;;;;;;;;;5051880;28;20239;-76
2022/04/22 06:32:26;;;;;;;34.92;13.55;;;;;;;;;;5052012;28;20206;-75
2022/04/22 06:34:53;;;;;;;35.50;16.52;;;;;;;;;;5052262;28;20227;-76
2022/04/22 06:37:22;;;;;;;36.92;16.42;;;;;;;;;;5052071;28;20213;-75
2022/04/22 06:48:08;;;;;;;23.95;9.23;;;;;;;;;;5052044;28;20304;-76
2022/04/22 06:50:36;;;;;;;23.30;9.15;;;;;;;;;;5051835;28;20213;-76
2022/04/22 06:53:03;;;;;;;22.20;9.00;;;;;;;;;;5051622;28;20209;-77
2022/04/22 06:55:31;;;;;;;23.00;9.20;;;;;;;;;;5051991;28;20232;-76
2022/04/22 06:58:02;;;;;;;22.60;8.23;;;;;;;;;;5051994;28;20637;-76
2022/04/22 07:00:29;;;;;;;24.33;8.95;;;;;;;;;;5051686;28;20208;-76
2022/04/22 07:02:57;;;;;;;22.83;9.00;;;;;;;;;;5051779;28;20233;-76
2022/04/22 07:05:26;;;;;;;20.70;8.70;;;;;;;;;;5051400;28;20210;-75
2022/04/22 07:07:54;;;;;;;44.17;20.92;;;;;;;;;;5051593;28;20209;-75
2022/04/22 07:10:23;;;;;;;22.92;9.13;;;;;;;;;;5052106;28;20207;-75
2022/04/22 07:12:50;;;;;;;19.20;7.55;;;;;;;;;;5045046;28;20244;-75
2022/04/22 07:15:19;;;;;;;18.88;7.13;;;;;;;;;;5051646;28;20205;-77
2022/04/22 07:17:46;;;;;;;19.65;7.97;;;;;;;;;;5051263;28;20226;-76
2022/04/22 07:20:14;;;;;;;20.67;7.60;;;;;;;;;;5054789;28;20288;-76
2022/04/22 07:22:44;;;;;;;19.02;7.32;;;;;;;;;;5055982;28;20240;-76
2022/04/22 07:25:12;;;;;;;21.90;7.50;;;;;;;;;;5055507;28;20201;-76
2022/04/22 07:27:40;;;;;;;23.48;8.88;;;;;;;;;;5055302;28;20587;-75
2022/04/22 07:30:09;;;;;;;21.05;7.85;;;;;;;;;;5055058;28;20220;-76
2022/04/22 07:32:38;;;;;;;19.73;8.23;;;;;;;;;;5055394;28;20205;-76
2022/04/22 07:35:08;;;;;;;22.90;8.32;;;;;;;;;;5055310;28;20205;-75
2022/04/22 07:37:35;;;;;;;20.60;9.57;;;;;;;;;;5055212;28;20271;-75
2022/04/22 07:40:04;;;;;;;17.63;7.13;;;;;;;;;;5055516;28;20292;-75
2022/04/22 07:42:34;;;;;;;20.45;7.53;;;;;;;;;;5055246;28;20756;-75
2022/04/22 07:47:49;;;;;;;29.20;7.93;;;;;;;;;;5051002;28;20212;-76
2022/04/22 07:50:18;;;;;;;24.58;8.48;;;;;;;;;;5055426;28;20209;-76
2022/04/22 07:52:46;;;;;;;21.50;8.20;;;;;;;;;;5054996;28;20284;-75
2022/04/22 07:55:15;;;;;;;17.63;7.20;;;;;;;;;;5055039;28;20677;-75
2022/04/22 07:57:43;;;;;;;19.00;7.65;;;;;;;;;;5048406;28;20205;-75
2022/04/22 08:00:11;;;;;;;18.50;6.40;;;;;;;;;;5054842;28;20238;-76
2022/04/22 08:02:40;;;;;;;20.55;7.80;;;;;;;;;;5054774;28;20300;-75
2022/04/22 08:05:11;;;;;;;16.10;4.45;;;;;;;;;;5055042;28;20213;-75
2022/04/22 08:07:39;;;;;;;19.63;7.15;;;;;;;;;;5054991;28;20215;-76
2022/04/22 08:10:06;;;;;;;18.33;7.43;;;;;;;;;;5054758;28;20256;-74
2022/04/22 08:12:35;;;;;;;16.10;5.55;;;;;;;;;;5054906;28;20217;-75
2022/04/22 08:15:04;;;;;;;16.73;6.13;;;;;;;;;;5054811;28;20690;-74
2022/04/22 08:17:36;;;;;;;16.95;6.43;;;;;;;;;;5054413;28;20209;-77
2022/04/22 08:20:05;;;;;;;16.65;5.85;;;;;;;;;;5054618;28;20660;-75
2022/04/22 08:22:32;;;;;;;17.92;6.93;;;;;;;;;;5054525;28;20260;-77
2022/04/22 08:25:00;;;;;;;17.38;6.38;;;;;;;;;;5054403;28;20206;-74
2022/04/22 08:27:28;;;;;;;19.23;7.03;;;;;;;;;;5054196;28;20296;-74
2022/04/22 08:29:57;;;;;;;21.98;9.98;;;;;;;;;;5053554;28;20275;-77
2022/04/22 08:32:25;;;;;;;20.73;8.43;;;;;;;;;;5047392;28;20867;-87
2022/04/22 08:34:52;;;;;;;19.27;7.80;;;;;;;;;;5054550;28;20212;-84
2022/04/22 08:37:20;;;;;;;19.30;7.40;;;;;;;;;;5054217;28;20459;-82
2022/04/22 08:39:48;;;;;;;18.03;6.80;;;;;;;;;;5054250;28;20493;-79
2022/04/22 08:42:16;;;;;;;20.37;7.27;;;;;;;;;;5054550;28;20503;-85
2022/04/22 08:44:43;;;;;;;22.97;7.50;;;;;;;;;;5054412;28;20456;-82
